createdAt,value
2019-04-14T00:02:22.821Z,0.19
2019-04-14T00:04:52.941Z,0.29
2019-04-14T00:07:23.084Z,0.28
2019-04-14T00:09:52.646Z,0.28
2019-04-14T00:12:23.073Z,0.20
2019-04-14T00:14:53.290Z,0.20
2019-04-14T00:17:23.594Z,0.14
2019-04-14T00:19:54.925Z,0.14
2019-04-14T00:22:26.557Z,0.12
2019-04-14T00:24:55.351Z,0.10
2019-04-14T00:27:24.479Z,0.10
2019-04-14T00:29:54.577Z,-0.10
2019-04-14T00:32:24.728Z,-0.09
2019-04-14T00:35:02.205Z,0.02
2019-04-14T00:37:36.471Z,-0.06
2019-04-14T00:40:10.482Z,0.00
2019-04-14T00:42:47.364Z,-0.13
2019-04-14T00:45:48.223Z,-0.19
2019-04-14T00:48:18.986Z,-0.19
2019-04-14T00:50:47.410Z,-0.20
2019-04-14T00:53:16.628Z,-0.24
2019-04-14T00:55:46.609Z,-0.24
2019-04-14T00:58:16.985Z,-0.20
2019-04-14T01:00:47.227Z,-0.27
2019-04-14T01:03:17.535Z,-0.23
2019-04-14T01:05:46.715Z,-0.15
2019-04-14T01:08:16.348Z,-0.20
2019-04-14T01:10:45.458Z,-0.22
2019-04-14T01:13:15.666Z,-0.22
2019-04-14T01:15:51.217Z,-0.31
2019-04-14T01:18:16.763Z,-0.31
2019-04-14T01:20:47.014Z,-0.37
2019-04-14T01:23:17.124Z,-0.38
2019-04-14T01:25:46.314Z,-0.36
2019-04-14T01:28:15.847Z,-0.36
2019-04-14T01:30:45.859Z,-0.39
2019-04-14T01:33:16.320Z,-0.34
2019-04-14T01:35:46.611Z,-0.34
2019-04-14T01:38:16.864Z,-0.39
2019-04-14T01:40:47.271Z,-0.41
2019-04-14T01:43:16.703Z,-0.45
2019-04-14T01:45:58.105Z,-0.45
2019-04-14T01:48:17.127Z,-0.54
2019-04-14T01:50:56.725Z,-0.51
2019-04-14T01:53:44.564Z,-0.57
2019-04-14T01:56:38.634Z,-0.54
2019-04-14T02:01:44.054Z,-0.33
2019-04-14T02:04:13.857Z,-0.44
2019-04-14T02:06:44.129Z,-0.44
2019-04-14T02:09:14.089Z,-0.45
2019-04-14T02:11:44.599Z,-0.38
2019-04-14T02:14:14.760Z,-0.38
2019-04-14T02:16:50.050Z,-0.31
2019-04-14T02:19:15.368Z,-0.35
2019-04-14T02:21:45.842Z,-0.36
2019-04-14T02:24:15.694Z,-0.26
2019-04-14T02:26:45.828Z,-0.32
2019-04-14T02:29:15.018Z,-0.29
2019-04-14T02:32:11.204Z,-0.32
2019-04-14T02:34:49.552Z,-0.32
2019-04-14T02:37:26.318Z,-0.40
2019-04-14T02:39:48.209Z,-0.34
2019-04-14T02:44:44.253Z,-0.30
2019-04-14T02:47:36.674Z,-0.35
2019-04-14T02:52:20.690Z,-0.33
2019-04-14T02:59:51.205Z,-0.25
2019-04-14T03:04:51.042Z,-0.33
2019-04-14T03:07:28.207Z,-0.42
2019-04-14T03:12:25.030Z,-0.37
2019-04-14T03:14:57.059Z,-0.34
2019-04-14T03:20:33.884Z,-0.37
2019-04-14T03:23:05.050Z,-0.36
2019-04-14T03:26:00.983Z,-0.44
2019-04-14T03:28:38.427Z,-0.50
2019-04-14T03:34:12.824Z,-0.38
2019-04-14T03:36:58.207Z,-0.39
2019-04-14T03:38:50.409Z,-0.39
2019-04-14T03:43:39.481Z,-0.52
2019-04-14T03:46:23.641Z,-0.49
2019-04-14T03:51:16.697Z,-0.48
2019-04-14T03:53:44.047Z,-0.49
2019-04-14T03:56:27.462Z,-0.48
2019-04-14T03:58:57.605Z,-0.46
2019-04-14T04:01:27.962Z,-0.46
2019-04-14T04:03:58.514Z,-0.52
2019-04-14T04:06:27.583Z,-0.42
2019-04-14T04:08:57.469Z,-0.42
2019-04-14T04:11:27.922Z,-0.51
2019-04-14T04:13:57.004Z,-0.51
2019-04-14T04:16:42.301Z,-0.42
2019-04-14T04:19:19.637Z,-0.43
2019-04-14T04:24:56.465Z,-0.43
2019-04-14T04:27:54.766Z,-0.39
2019-04-14T04:30:34.066Z,-0.39
2019-04-14T04:33:13.317Z,-0.40
2019-04-14T04:35:50.074Z,-0.40
2019-04-14T04:38:31.313Z,-0.39
2019-04-14T04:41:01.499Z,-0.39
2019-04-14T04:43:31.847Z,-0.16
2019-04-14T04:46:01.128Z,-0.14
2019-04-14T04:48:30.711Z,-0.13
2019-04-14T04:51:00.686Z,-0.12
2019-04-14T04:53:30.925Z,-0.12
2019-04-14T04:55:59.995Z,-0.21
2019-04-14T04:58:28.977Z,-0.21
2019-04-14T05:03:27.488Z,-0.08
2019-04-14T05:07:05.587Z,-0.10
2019-04-14T05:10:00.248Z,-0.03
2019-04-14T05:12:37.002Z,-0.09
2019-04-14T05:15:25.355Z,-0.09
2019-04-14T05:17:54.447Z,-0.04
2019-04-14T05:20:23.467Z,-0.04
2019-04-14T05:25:23.219Z,0.15
2019-04-14T05:27:53.706Z,0.13
2019-04-14T05:30:24.042Z,0.18
2019-04-14T05:32:54.378Z,0.32
2019-04-14T05:35:29.665Z,0.33
2019-04-14T05:37:59.664Z,0.33
2019-04-14T05:40:29.912Z,0.52
2019-04-14T05:43:00.156Z,0.52
2019-04-14T05:45:30.545Z,0.60
2019-04-14T05:48:00.978Z,0.67
2019-04-14T05:50:31.258Z,0.73
2019-04-14T05:53:00.404Z,0.76
2019-04-14T05:55:31.224Z,0.76
2019-04-14T05:58:01.336Z,0.90
2019-04-14T06:00:30.570Z,0.94
2019-04-14T06:02:59.619Z,1.01
2019-04-14T06:05:29.639Z,1.01
2019-04-14T06:08:00.061Z,1.15
2019-04-14T06:10:29.116Z,1.28
2019-04-14T06:12:58.075Z,1.28
2019-04-14T06:15:27.250Z,1.27
2019-04-14T06:17:56.320Z,1.32
2019-04-14T06:20:25.321Z,1.49
2019-04-14T06:22:54.374Z,1.49
2019-04-14T06:25:25.614Z,1.61
2019-04-14T06:27:54.612Z,1.61
2019-04-14T06:30:43.577Z,1.68
2019-04-14T06:33:23.860Z,1.68
2019-04-14T06:36:20.842Z,1.85
2019-04-14T06:38:53.262Z,1.81
2019-04-14T06:41:22.351Z,1.71
2019-04-14T06:43:52.704Z,1.71
2019-04-14T06:46:21.721Z,1.75
2019-04-14T06:48:50.741Z,1.95
2019-04-14T06:51:19.781Z,1.97
2019-04-14T06:53:48.854Z,1.97
2019-04-14T06:56:17.884Z,1.85
2019-04-14T06:58:46.942Z,2.12
2019-04-14T07:01:15.949Z,2.26
2019-04-14T07:03:45.014Z,2.24
2019-04-14T07:06:14.132Z,2.33
2019-04-14T07:08:43.159Z,2.34
2019-04-14T07:11:12.161Z,2.21
2019-04-14T07:13:41.216Z,2.21
2019-04-14T07:16:10.236Z,2.35
2019-04-14T07:18:39.255Z,2.35
2019-04-14T07:21:12.130Z,2.66
2019-04-14T07:23:50.132Z,2.69
2019-04-14T07:26:19.259Z,2.51
2019-04-14T07:28:56.505Z,2.62
2019-04-14T07:31:56.558Z,2.96
2019-04-14T07:34:39.575Z,3.24
2019-04-14T07:37:26.974Z,3.24
2019-04-14T07:40:03.011Z,3.21
2019-04-14T07:42:54.060Z,3.54
2019-04-14T07:45:48.830Z,3.54
2019-04-14T07:48:34.303Z,3.78
2019-04-14T07:51:16.619Z,3.98
2019-04-14T07:54:07.640Z,3.82
2019-04-14T07:56:52.661Z,3.99
2019-04-14T07:59:27.205Z,3.77
2019-04-14T08:02:18.198Z,4.04
2019-04-14T08:04:53.645Z,4.12
2019-04-14T08:07:22.657Z,4.06
2019-04-14T08:09:51.646Z,4.32
2019-04-14T08:12:20.655Z,4.28
2019-04-14T08:14:49.683Z,5.08
2019-04-14T08:17:18.662Z,4.78
2019-04-14T08:19:47.702Z,5.13
2019-04-14T08:25:07.158Z,5.04
2019-04-14T08:27:40.231Z,5.15
2019-04-14T08:30:09.608Z,5.15
2019-04-14T08:32:39.457Z,5.07
2019-04-14T08:35:08.614Z,5.07
2019-04-14T08:37:38.285Z,5.45
2019-04-14T08:40:08.469Z,5.72
2019-04-14T08:42:58.614Z,5.72
2019-04-14T08:45:35.401Z,5.75
2019-04-14T08:48:22.303Z,5.37
2019-04-14T08:51:07.126Z,5.80
2019-04-14T08:53:49.473Z,5.68
2019-04-14T08:56:46.591Z,6.01
2019-04-14T08:59:33.421Z,6.02
2019-04-14T09:02:08.736Z,6.17
2019-04-14T09:04:42.162Z,6.16
2019-04-14T09:07:24.759Z,6.54
2019-04-14T09:09:57.021Z,6.54
2019-04-14T09:12:28.657Z,6.46
2019-04-14T09:14:57.821Z,6.55
2019-04-14T09:17:30.939Z,6.76
2019-04-14T09:19:59.921Z,6.73
2019-04-14T09:22:28.944Z,6.77
2019-04-14T09:24:58.026Z,7.39
2019-04-14T09:27:27.115Z,7.39
2019-04-14T09:29:56.210Z,7.63
2019-04-14T09:32:26.415Z,7.70
2019-04-14T09:34:55.422Z,8.59
2019-04-14T09:37:24.433Z,8.10
2019-04-14T09:39:53.715Z,8.79
2019-04-14T09:42:22.694Z,8.47
2019-04-14T09:44:51.697Z,8.89
2019-04-14T09:47:20.723Z,8.55
2019-04-14T09:49:49.890Z,8.31
2019-04-14T09:52:18.974Z,7.96
2019-04-14T09:54:47.992Z,7.59
2019-04-14T09:57:16.985Z,8.25
2019-04-14T09:59:46.070Z,8.54
2019-04-14T10:02:15.163Z,9.10
2019-04-14T10:04:44.261Z,8.60
2019-04-14T10:07:13.412Z,8.60
2019-04-14T10:09:42.559Z,8.46
2019-04-14T10:12:11.545Z,9.08
2019-04-14T10:14:40.641Z,9.23
2019-04-14T10:17:09.704Z,8.93
2019-04-14T10:19:38.767Z,8.93
2019-04-14T10:22:07.865Z,10.94
2019-04-14T10:24:36.863Z,9.86
2019-04-14T10:27:06.019Z,9.84
2019-04-14T10:29:35.024Z,8.93
2019-04-14T10:32:04.123Z,8.59
2019-04-14T10:34:35.391Z,8.73
2019-04-14T10:37:04.540Z,8.73
2019-04-14T10:39:33.531Z,10.40
2019-04-14T10:42:02.540Z,9.82
2019-04-14T10:44:31.648Z,10.00
2019-04-14T10:47:00.706Z,9.96
2019-04-14T10:49:29.702Z,9.96
2019-04-14T10:51:58.760Z,10.78
2019-04-14T10:54:27.756Z,11.05
2019-04-14T10:56:56.761Z,11.51
2019-04-14T10:59:27.012Z,12.19
2019-04-14T11:01:56.156Z,12.19
2019-04-14T11:04:25.138Z,10.69
2019-04-14T11:07:03.453Z,10.73
2019-04-14T11:09:32.457Z,10.95
2019-04-14T11:12:04.407Z,11.27
2019-04-14T11:14:33.453Z,11.01
2019-04-14T11:17:02.508Z,10.84
2019-04-14T11:19:31.511Z,10.99
2019-04-14T11:22:03.531Z,10.78
2019-04-14T11:24:32.531Z,11.16
2019-04-14T11:27:01.607Z,11.63
2019-04-14T11:29:30.720Z,11.58
2019-04-14T11:32:24.502Z,10.28
2019-04-14T11:35:21.662Z,10.99
2019-04-14T11:37:58.974Z,11.80
2019-04-14T11:40:34.434Z,11.70
2019-04-14T11:43:02.352Z,11.70
2019-04-14T11:45:31.436Z,12.69
2019-04-14T11:48:00.452Z,12.54
2019-04-14T11:50:29.739Z,12.54
2019-04-14T11:53:00.814Z,11.34
2019-04-14T11:55:29.887Z,11.34
2019-04-14T11:58:00.542Z,11.58
2019-04-14T12:00:48.568Z,12.72
2019-04-14T12:03:51.623Z,12.34
2019-04-14T12:06:31.621Z,12.34
2019-04-14T12:09:19.536Z,12.45
2019-04-14T12:11:48.583Z,12.22
2019-04-14T12:14:17.676Z,13.04
2019-04-14T12:16:46.845Z,13.61
2019-04-14T12:19:15.867Z,12.99
2019-04-14T12:21:46.209Z,12.64
2019-04-14T12:24:15.223Z,13.49
2019-04-14T12:26:44.224Z,13.59
2019-04-14T12:29:14.102Z,14.37
2019-04-14T12:31:44.133Z,12.69
2019-04-14T12:34:18.071Z,14.13
2019-04-14T12:36:46.081Z,13.70
2019-04-14T12:39:23.097Z,13.41
2019-04-14T12:42:11.879Z,13.78
2019-04-14T12:45:02.993Z,12.82
2019-04-14T12:47:51.010Z,12.24
2019-04-14T12:50:27.188Z,14.05
2019-04-14T12:52:56.563Z,14.05
2019-04-14T12:55:25.578Z,12.20
2019-04-14T12:57:57.393Z,11.85
2019-04-14T13:00:47.901Z,12.13
2019-04-14T13:03:16.987Z,12.15
2019-04-14T13:05:46.112Z,12.14
2019-04-14T13:08:15.124Z,13.07
2019-04-14T13:10:44.182Z,13.07
2019-04-14T13:13:13.227Z,13.23
2019-04-14T13:15:42.332Z,12.64
2019-04-14T13:18:11.670Z,12.31
2019-04-14T13:20:40.806Z,11.51
2019-04-14T13:23:09.781Z,12.18
2019-04-14T13:25:38.858Z,13.04
2019-04-14T13:28:07.923Z,13.04
2019-04-14T13:30:39.843Z,14.63
2019-04-14T13:35:37.025Z,13.79
2019-04-14T13:38:06.141Z,13.49
2019-04-14T13:40:35.223Z,13.49
2019-04-14T13:43:04.505Z,14.54
2019-04-14T13:45:33.523Z,12.45
2019-04-14T13:48:02.601Z,12.99
2019-04-14T13:50:31.761Z,14.16
2019-04-14T13:53:00.751Z,13.85
2019-04-14T13:55:29.726Z,14.92
2019-04-14T13:57:58.794Z,14.35
2019-04-14T14:00:27.871Z,14.82
2019-04-14T14:02:56.864Z,13.61
2019-04-14T14:05:25.924Z,13.61
2019-04-14T14:07:55.005Z,14.10
2019-04-14T14:10:24.126Z,14.72
2019-04-14T14:13:15.210Z,14.99
2019-04-14T14:16:02.110Z,14.50
2019-04-14T14:18:44.767Z,14.58
2019-04-14T14:21:31.976Z,13.51
2019-04-14T14:24:29.211Z,14.39
2019-04-14T14:26:58.336Z,14.99
2019-04-14T14:29:27.518Z,14.00
2019-04-14T14:31:57.222Z,15.23
2019-04-14T14:34:26.226Z,14.21
2019-04-14T14:36:55.334Z,14.21
2019-04-14T14:39:24.380Z,14.84
2019-04-14T14:41:53.481Z,14.09
2019-04-14T14:44:24.130Z,13.61
2019-04-14T14:47:14.844Z,14.03
2019-04-14T14:50:01.608Z,13.81
2019-04-14T14:52:31.460Z,14.28
2019-04-14T14:55:00.516Z,14.59
2019-04-14T14:57:29.692Z,14.51
2019-04-14T14:59:58.710Z,13.72
2019-04-14T15:02:27.713Z,13.77
2019-04-14T15:04:56.760Z,12.29
2019-04-14T15:07:25.760Z,13.73
2019-04-14T15:09:54.832Z,13.62
2019-04-14T15:12:23.880Z,14.02
2019-04-14T15:14:52.890Z,13.96
2019-04-14T15:17:21.940Z,13.96
2019-04-14T15:22:19.285Z,13.63
2019-04-14T15:24:48.286Z,14.25
2019-04-14T15:27:17.302Z,13.44
2019-04-14T15:29:46.298Z,14.04
2019-04-14T15:32:15.383Z,13.34
2019-04-14T15:34:44.352Z,14.03
2019-04-14T15:37:13.380Z,14.36
2019-04-14T15:39:42.491Z,13.76
2019-04-14T15:42:11.529Z,13.02
2019-04-14T15:44:40.576Z,12.57
2019-04-14T15:47:09.643Z,12.73
2019-04-14T15:49:38.633Z,12.78
2019-04-14T15:52:07.750Z,13.02
2019-04-14T15:54:36.748Z,13.64
2019-04-14T15:57:27.971Z,13.64
2019-04-14T16:00:17.250Z,13.33
2019-04-14T16:03:14.354Z,14.00
2019-04-14T16:06:03.238Z,13.45
2019-04-14T16:08:37.351Z,13.25
2019-04-14T16:11:21.929Z,12.01
2019-04-14T16:14:25.171Z,11.98
2019-04-14T16:17:18.041Z,11.98
2019-04-14T16:19:51.092Z,11.98
2019-04-14T16:22:20.512Z,12.07
2019-04-14T16:24:49.591Z,12.38
2019-04-14T16:27:31.284Z,12.61
2019-04-14T16:30:19.287Z,12.42
2019-04-14T16:33:11.189Z,13.11
2019-04-14T16:35:41.627Z,12.60
2019-04-14T16:38:10.727Z,12.77
2019-04-14T16:40:39.926Z,12.63
2019-04-14T16:43:11.086Z,12.30
2019-04-14T16:45:40.166Z,12.30
2019-04-14T16:48:09.377Z,12.16
2019-04-14T16:50:39.896Z,12.23
2019-04-14T16:53:16.594Z,11.79
2019-04-14T16:56:02.469Z,11.66
2019-04-14T16:58:35.786Z,11.66
2019-04-14T17:01:08.104Z,11.77
2019-04-14T17:03:38.813Z,11.75
2019-04-14T17:06:08.003Z,11.57
2019-04-14T17:08:37.169Z,11.96
2019-04-14T17:11:06.588Z,11.96
2019-04-14T17:13:38.750Z,12.08
2019-04-14T17:16:17.300Z,11.38
2019-04-14T17:19:06.777Z,12.06
2019-04-14T17:21:46.354Z,11.71
2019-04-14T17:24:37.506Z,11.76
2019-04-14T17:27:14.530Z,11.76
2019-04-14T17:30:02.736Z,11.48
2019-04-14T17:32:54.270Z,11.25
2019-04-14T17:35:42.588Z,11.25
2019-04-14T17:38:28.128Z,11.09
2019-04-14T17:41:15.156Z,11.24
2019-04-14T17:44:01.975Z,11.29
2019-04-14T17:46:50.001Z,11.21
2019-04-14T17:49:44.089Z,11.06
2019-04-14T17:52:37.399Z,11.09
2019-04-14T17:55:12.533Z,11.09
2019-04-14T17:57:59.204Z,10.90
2019-04-14T18:00:54.822Z,10.67
2019-04-14T18:03:48.827Z,10.39
2019-04-14T18:06:26.632Z,10.43
2019-04-14T18:09:20.658Z,10.47
2019-04-14T18:12:00.465Z,10.16
2019-04-14T18:14:38.500Z,9.82
2019-04-14T18:17:32.842Z,10.01
2019-04-14T18:20:20.841Z,10.01
2019-04-14T18:22:49.834Z,9.77
2019-04-14T18:25:18.885Z,9.99
2019-04-14T18:28:10.373Z,9.72
2019-04-14T18:30:45.815Z,9.76
2019-04-14T18:33:32.211Z,9.55
2019-04-14T18:36:22.982Z,9.55
2019-04-14T18:39:20.089Z,9.55
2019-04-14T18:41:58.660Z,9.20
2019-04-14T18:44:45.778Z,9.37
2019-04-14T18:47:33.875Z,9.06
2019-04-14T18:50:13.852Z,8.89
2019-04-14T18:53:04.660Z,8.68
2019-04-14T18:56:10.753Z,9.11
2019-04-14T18:59:03.295Z,8.54
2019-04-14T19:01:38.073Z,8.99
2019-04-14T19:04:07.117Z,8.64
2019-04-14T19:06:36.214Z,8.38
2019-04-14T19:09:07.465Z,8.70
2019-04-14T19:11:55.957Z,8.62
2019-04-14T19:14:28.850Z,8.12
2019-04-14T19:17:06.098Z,8.09
2019-04-14T19:19:36.678Z,8.18
2019-04-14T19:22:05.837Z,7.86
2019-04-14T19:24:35.136Z,7.84
2019-04-14T19:27:06.522Z,7.76
2019-04-14T19:29:35.546Z,7.73
2019-04-14T19:32:04.998Z,7.65
2019-04-14T19:34:34.110Z,7.69
2019-04-14T19:37:03.105Z,7.69
2019-04-14T19:39:32.184Z,7.88
2019-04-14T19:42:01.246Z,7.64
2019-04-14T19:44:30.254Z,7.56
2019-04-14T19:47:03.196Z,7.43
2019-04-14T19:49:32.200Z,7.41
2019-04-14T19:52:01.286Z,7.38
2019-04-14T19:54:30.318Z,7.36
2019-04-14T19:56:59.309Z,7.44
2019-04-14T19:59:28.351Z,7.44
2019-04-14T20:01:57.395Z,7.01
2019-04-14T20:04:26.719Z,7.01
2019-04-14T20:06:55.785Z,7.14
2019-04-14T20:09:30.880Z,7.02
2019-04-14T20:12:00.061Z,7.04
2019-04-14T20:14:30.644Z,7.05
2019-04-14T20:17:21.028Z,7.21
2019-04-14T20:20:01.389Z,6.91
2019-04-14T20:22:37.099Z,7.13
2019-04-14T20:25:17.110Z,6.86
2019-04-14T20:28:20.651Z,6.82
2019-04-14T20:30:53.911Z,7.11
2019-04-14T20:33:22.884Z,7.11
2019-04-14T20:35:51.994Z,7.27
2019-04-14T20:38:20.993Z,7.35
2019-04-14T20:40:51.693Z,7.43
2019-04-14T20:43:20.792Z,7.43
2019-04-14T20:45:49.881Z,7.27
2019-04-14T20:48:19.007Z,7.43
2019-04-14T20:50:48.098Z,7.48
2019-04-14T20:53:17.125Z,7.34
2019-04-14T20:55:47.655Z,7.29
2019-04-14T20:58:18.397Z,7.29
2019-04-14T21:00:47.558Z,7.44
2019-04-14T21:03:36.298Z,7.27
2019-04-14T21:06:17.667Z,7.27
2019-04-14T21:09:17.739Z,7.36
2019-04-14T21:12:20.787Z,7.37
2019-04-14T21:15:14.570Z,7.22
2019-04-14T21:18:05.679Z,7.15
2019-04-14T21:20:53.807Z,7.36
2019-04-14T21:23:59.992Z,7.35
2019-04-14T21:26:46.270Z,7.48
2019-04-14T21:29:33.269Z,7.27
2019-04-14T21:32:08.360Z,7.39
2019-04-14T21:35:09.759Z,7.39
2019-04-14T21:37:51.441Z,7.38
2019-04-14T21:40:27.658Z,7.38
2019-04-14T21:42:56.709Z,7.41
2019-04-14T21:45:26.293Z,7.39
2019-04-14T21:47:55.456Z,7.54
2019-04-14T21:50:24.520Z,7.54
2019-04-14T21:52:53.483Z,7.36
2019-04-14T21:55:22.562Z,7.50
2019-04-14T21:57:56.998Z,7.39
2019-04-14T22:01:14.622Z,7.49
2019-04-14T22:03:50.912Z,7.49
2019-04-14T22:06:25.667Z,7.43
2019-04-14T22:08:54.717Z,7.37
2019-04-14T22:11:25.321Z,7.47
2019-04-14T22:13:55.771Z,7.56
2019-04-14T22:16:24.839Z,7.80
2019-04-14T22:18:56.232Z,7.54
2019-04-14T22:21:25.251Z,7.55
2019-04-14T22:24:01.101Z,7.50
2019-04-14T22:26:26.371Z,7.50
2019-04-14T22:28:55.760Z,7.43
2019-04-14T22:31:24.727Z,7.43
2019-04-14T22:33:53.913Z,7.36
2019-04-14T22:36:22.910Z,7.39
2019-04-14T22:38:51.887Z,7.34
2019-04-14T22:41:20.987Z,7.34
2019-04-14T22:43:51.332Z,7.31
2019-04-14T22:46:20.368Z,7.38
2019-04-14T22:48:49.367Z,7.39
2019-04-14T22:51:18.621Z,7.27
2019-04-14T22:53:47.594Z,6.97
2019-04-14T22:56:16.638Z,6.97
2019-04-14T22:58:45.682Z,7.01
2019-04-14T23:01:24.732Z,7.01
2019-04-14T23:04:25.087Z,7.07
2019-04-14T23:07:15.811Z,7.13
2019-04-14T23:10:09.927Z,7.13
2019-04-14T23:12:44.378Z,7.13
2019-04-14T23:15:35.548Z,6.94
2019-04-14T23:18:27.532Z,7.10
2019-04-14T23:21:20.692Z,6.83
2019-04-14T23:24:08.125Z,6.81
2019-04-14T23:26:37.186Z,6.82
2019-04-14T23:29:06.173Z,6.83
2019-04-14T23:31:35.305Z,6.83
2019-04-14T23:34:04.414Z,6.84
2019-04-14T23:36:33.396Z,6.68
2019-04-14T23:39:02.772Z,6.76
2019-04-14T23:41:31.830Z,6.76
2019-04-14T23:44:00.830Z,6.58
2019-04-14T23:46:29.853Z,6.47
2019-04-14T23:48:58.943Z,6.47
2019-04-14T23:51:28.075Z,6.46
2019-04-14T23:53:57.087Z,6.46
2019-04-14T23:56:26.149Z,6.49
2019-04-14T23:58:55.238Z,6.39
